Time;durP1;ratioP1;P1;durP2;ratioP2;P2;SDS_P1;SDS_P2;PMS_P1;PMS_P2;Temp;Humidity;BMP_temperature;BMP_pressure;BME280_temperature;BME280_humidity;BME280_pressure;Samples;Min_cycle;Max_cycle;Signal;HPM_P1;HPM_P2
2023/07/26 00:00:28;;;;;;;3.50;2.60;;;;;;;15.40;62.62;98869.39;130627;1256;107573;-75
2023/07/26 00:03:55;;;;;;;3.00;2.70;;;;;;;15.40;62.67;98879.81;130508;1261;110111;-76
2023/07/26 00:07:01;;;;;;;3.30;2.80;;;;;;;15.43;62.66;98889.42;130608;1259;108148;-75
2023/07/26 00:10:07;;;;;;;3.40;3.00;;;;;;;15.50;62.87;98892.97;130589;1270;107514;-76
2023/07/26 00:13:13;;;;;;;3.60;2.80;;;;;;;15.61;63.16;98899.71;130520;1262;107546;-75
2023/07/26 00:16:18;;;;;;;4.60;3.20;;;;;;;15.71;63.28;98900.21;130564;1256;107570;-75
2023/07/26 00:19:24;;;;;;;5.90;3.10;;;;;;;15.80;63.39;98901.32;130547;1260;106044;-75
2023/07/26 00:22:29;;;;;;;5.90;3.60;;;;;;;15.87;63.53;98904.66;130618;1259;107522;-75
2023/07/26 00:25:35;;;;;;;4.50;3.20;;;;;;;15.95;63.71;98905.95;130589;1262;108640;-75
2023/07/26 00:28:41;;;;;;;4.20;3.00;;;;;;;16.04;63.86;98906.81;130618;1256;106772;-75
2023/07/26 00:31:46;;;;;;;5.00;3.20;;;;;;;16.12;63.91;98909.26;130602;1259;107661;-76
2023/07/26 00:34:51;;;;;;;6.10;3.70;;;;;;;16.19;64.12;98908.54;130432;1256;142133;-76
2023/07/26 00:37:57;;;;;;;5.80;3.20;;;;;;;16.22;64.17;98912.64;130558;1260;107509;-75
2023/07/26 00:41:05;;;;;;;4.00;3.00;;;;;;;16.28;64.16;98911.09;130581;1266;107444;-75
2023/07/26 00:44:11;;;;;;;3.40;2.70;;;;;;;16.33;64.15;98913.98;130524;1262;107381;-75
2023/07/26 00:47:17;;;;;;;4.20;2.90;;;;;;;16.39;64.20;98916.73;130489;1259;107427;-76
2023/07/26 00:50:24;;;;;;;3.70;3.10;;;;;;;16.45;64.23;98919.35;130513;1259;107553;-76
2023/07/26 00:53:30;;;;;;;6.60;3.10;;;;;;;16.51;64.22;98920.13;130567;1258;105785;-75
2023/07/26 00:56:37;;;;;;;4.30;3.00;;;;;;;16.57;64.04;98931.15;130519;1258;107583;-75
2023/07/26 00:59:43;;;;;;;4.00;3.10;;;;;;;16.60;64.07;98936.46;130596;1256;107360;-75
2023/07/26 01:02:50;;;;;;;4.60;3.20;;;;;;;16.59;64.06;98931.86;130591;1262;107439;-75
2023/07/26 01:06:10;;;;;;;4.30;3.10;;;;;;;16.58;64.05;98932.00;130582;1259;108023;-76
2023/07/26 01:09:24;;;;;;;3.50;3.10;;;;;;;16.54;64.38;98931.89;130588;1261;107523;-75
2023/07/26 01:12:34;;;;;;;4.30;3.20;;;;;;;16.44;64.73;98937.51;130530;1259;107469;-75
2023/07/26 01:15:42;;;;;;;4.70;3.30;;;;;;;16.43;64.63;98946.09;130605;1260;109277;-75
2023/07/26 01:18:47;;;;;;;4.30;3.70;;;;;;;16.50;64.73;98947.27;130585;1259;107412;-76
2023/07/26 01:21:53;;;;;;;5.40;3.70;;;;;;;16.48;65.13;98943.76;130546;1259;107570;-78
2023/07/26 01:24:58;;;;;;;5.30;3.70;;;;;;;16.41;64.83;98946.86;130563;1259;107569;-76
2023/07/26 01:28:05;;;;;;;5.50;3.50;;;;;;;16.40;64.86;98942.68;130568;1256;106515;-75
2023/07/26 01:31:12;;;;;;;4.30;3.30;;;;;;;16.44;64.68;98942.10;130563;1260;107553;-75
2023/07/26 01:34:19;;;;;;;4.10;2.90;;;;;;;16.49;64.84;98936.38;130420;1262;107269;-75
2023/07/26 01:37:25;;;;;;;3.80;2.90;;;;;;;16.55;64.91;98915.65;130564;1259;107450;-75
2023/07/26 01:40:31;;;;;;;4.00;3.00;;;;;;;16.64;64.92;98903.36;130532;1257;107243;-75
2023/07/26 01:43:37;;;;;;;6.10;4.30;;;;;;;16.67;64.79;98904.14;130514;1259;107502;-75
2023/07/26 01:46:42;;;;;;;3.90;3.30;;;;;;;16.64;64.61;98910.57;130558;1259;107116;-77
2023/07/26 01:49:48;;;;;;;4.70;3.20;;;;;;;16.60;64.70;98924.02;130622;1254;105666;-75
2023/07/26 01:52:54;;;;;;;3.70;3.20;;;;;;;16.59;64.98;98935.64;130639;1259;107611;-76
2023/07/26 01:56:01;;;;;;;4.00;2.70;;;;;;;16.58;64.93;98939.63;130534;1259;107406;-75
2023/07/26 01:59:07;;;;;;;3.30;3.00;;;;;;;16.54;64.97;98931.55;130537;1264;107529;-75
2023/07/26 02:02:12;;;;;;;4.90;3.00;;;;;;;16.50;65.02;98936.66;130383;1261;107641;-75
2023/07/26 02:05:18;;;;;;;4.30;3.20;;;;;;;16.42;64.99;98931.77;130559;1261;107555;-75
2023/07/26 02:08:24;;;;;;;4.80;3.20;;;;;;;16.35;64.98;98931.34;130542;1259;107494;-75
2023/07/26 02:11:29;;;;;;;3.50;3.20;;;;;;;16.28;65.16;98930.17;130581;1262;107464;-76
2023/07/26 02:14:35;;;;;;;3.50;3.00;;;;;;;16.19;65.13;98928.36;130542;1257;107247;-75
2023/07/26 02:17:41;;;;;;;3.60;3.00;;;;;;;16.14;65.14;98926.05;130511;1259;107489;-75
2023/07/26 02:20:46;;;;;;;4.00;3.50;;;;;;;16.07;65.30;98914.23;130563;1256;107441;-76
2023/07/26 02:23:52;;;;;;;4.50;3.00;;;;;;;16.01;65.41;98917.30;130539;1271;106424;-76
2023/07/26 02:26:58;;;;;;;3.50;2.90;;;;;;;15.94;65.43;98924.73;130576;1260;107553;-75
2023/07/26 02:30:04;;;;;;;4.10;3.00;;;;;;;15.90;65.50;98930.58;130497;1259;107515;-75
2023/07/26 02:33:09;;;;;;;4.70;2.80;;;;;;;15.87;65.58;98934.52;130557;1263;107248;-77
2023/07/26 02:36:15;;;;;;;4.10;3.20;;;;;;;15.85;65.68;98932.98;130508;1259;107430;-76
2023/07/26 02:39:21;;;;;;;3.40;3.10;;;;;;;15.87;65.75;98932.39;130527;1262;106403;-75
2023/07/26 02:42:27;;;;;;;3.50;3.20;;;;;;;15.90;65.98;98940.21;130557;1256;107666;-77
2023/07/26 02:45:33;;;;;;;4.10;3.20;;;;;;;15.93;65.91;98950.16;130586;1260;107452;-77
2023/07/26 02:48:38;;;;;;;3.50;3.20;;;;;;;15.97;66.02;98951.20;130596;1262;107593;-76
2023/07/26 02:51:44;;;;;;;4.30;3.30;;;;;;;15.99;65.85;98951.48;130535;1259;107569;-76
2023/07/26 02:54:50;;;;;;;4.00;3.30;;;;;;;16.00;65.99;98960.67;130633;1263;106273;-76
2023/07/26 02:57:56;;;;;;;4.50;3.30;;;;;;;16.02;66.16;98963.83;130471;1262;107613;-76
2023/07/26 03:01:01;;;;;;;4.10;3.10;;;;;;;16.04;66.18;98963.80;130503;1260;107542;-76
2023/07/26 03:04:07;;;;;;;4.10;3.40;;;;;;;16.03;66.25;98967.17;130537;1256;107286;-76
2023/07/26 03:07:13;;;;;;;5.30;3.60;;;;;;;16.01;66.21;98965.13;130573;1264;107247;-76
2023/07/26 03:10:18;;;;;;;3.70;3.30;;;;;;;16.00;66.40;98966.25;130512;1260;107517;-76
2023/07/26 03:13:25;;;;;;;3.60;2.90;;;;;;;16.02;66.49;98963.79;130496;1260;106566;-76
2023/07/26 03:16:31;;;;;;;4.40;3.10;;;;;;;16.07;66.57;98956.73;130455;1262;107595;-76
2023/07/26 03:19:38;;;;;;;3.50;3.20;;;;;;;16.15;66.61;98953.61;130530;1261;107388;-76
2023/07/26 03:22:43;;;;;;;4.40;3.60;;;;;;;16.25;66.64;98950.62;130469;1256;108285;-78
2023/07/26 03:25:49;;;;;;;7.00;3.20;;;;;;;16.35;66.60;98951.48;130552;1259;107251;-76
2023/07/26 03:28:55;;;;;;;4.10;3.30;;;;;;;16.44;66.54;98950.81;130541;1262;108667;-76
2023/07/26 03:32:01;;;;;;;3.80;3.20;;;;;;;16.53;66.64;98947.32;130548;1261;107532;-76
2023/07/26 03:35:08;;;;;;;3.80;3.40;;;;;;;16.62;66.62;98942.89;130529;1262;107246;-77
2023/07/26 03:38:13;;;;;;;6.20;3.60;;;;;;;16.69;66.52;98940.14;130542;1262;107648;-76
2023/07/26 03:41:19;;;;;;;4.30;3.50;;;;;;;16.75;66.63;98946.98;130499;1269;107553;-76
2023/07/26 03:44:25;;;;;;;3.70;3.30;;;;;;;16.80;66.81;98954.61;130545;1260;106755;-76
2023/07/26 03:47:30;;;;;;;5.10;3.90;;;;;;;16.86;66.90;98953.85;130594;1260;108195;-76
2023/07/26 03:50:36;;;;;;;3.60;3.20;;;;;;;16.92;67.00;98955.63;130573;1269;108642;-76
2023/07/26 03:53:41;;;;;;;3.10;2.80;;;;;;;16.98;66.99;98961.28;130614;1259;107456;-77
2023/07/26 03:56:47;;;;;;;3.20;2.60;;;;;;;17.01;67.07;98963.26;130628;1257;107552;-78
2023/07/26 03:59:53;;;;;;;4.70;3.20;;;;;;;17.07;67.15;98972.86;130577;1259;107377;-77
2023/07/26 04:03:00;;;;;;;6.50;3.40;;;;;;;17.14;67.04;98974.62;130663;1258;107493;-76
2023/07/26 04:06:06;;;;;;;6.20;3.90;;;;;;;17.25;66.95;98971.10;130587;1261;107736;-77
2023/07/26 04:09:11;;;;;;;5.60;4.10;;;;;;;17.28;67.45;98970.30;130507;1261;107593;-77
2023/07/26 04:12:17;;;;;;;6.80;5.10;;;;;;;17.14;67.60;98978.66;130674;1262;107548;-76
2023/07/26 04:15:23;;;;;;;5.50;4.50;;;;;;;17.07;67.84;98976.46;130540;1259;107582;-76
2023/07/26 04:18:29;;;;;;;7.20;4.80;;;;;;;17.04;68.04;98983.55;130542;1260;107532;-76
2023/07/26 04:21:35;;;;;;;7.10;4.90;;;;;;;17.00;68.26;98986.13;130531;1258;107579;-77
2023/07/26 04:24:45;;;;;;;7.90;5.00;;;;;;;17.00;68.21;98990.90;130538;1259;108270;-77
2023/07/26 04:27:51;;;;;;;6.90;4.90;;;;;;;16.97;68.35;98992.75;130549;1258;107506;-77
2023/07/26 04:30:57;;;;;;;8.20;5.10;;;;;;;17.00;68.69;98985.80;130495;1259;105869;-77
2023/07/26 04:34:02;;;;;;;5.50;4.40;;;;;;;16.97;69.15;98996.94;130558;1259;107590;-76
2023/07/26 04:37:08;;;;;;;7.20;4.30;;;;;;;16.95;68.97;99000.86;130597;1260;107589;-76
2023/07/26 04:40:15;;;;;;;8.30;4.80;;;;;;;17.07;69.23;99005.74;130498;1260;107380;-76
2023/07/26 04:43:20;;;;;;;6.60;4.70;;;;;;;17.15;69.44;99013.56;130518;1267;107537;-76
2023/07/26 04:46:26;;;;;;;9.50;5.00;;;;;;;17.21;69.06;99014.94;130503;1268;107488;-77
2023/07/26 04:49:31;;;;;;;6.80;5.00;;;;;;;17.25;68.99;99013.52;130562;1260;107610;-76
2023/07/26 04:52:37;;;;;;;7.20;4.70;;;;;;;17.26;68.91;99026.27;130624;1262;107434;-77
2023/07/26 04:55:45;;;;;;;5.60;4.60;;;;;;;17.32;69.05;99030.77;130672;1261;108368;-79
2023/07/26 04:58:51;;;;;;;6.20;4.80;;;;;;;17.35;68.82;99030.23;130545;1268;107936;-77
2023/07/26 05:01:56;;;;;;;7.90;5.40;;;;;;;17.42;69.11;99034.20;130528;1259;107822;-76
2023/07/26 05:05:02;;;;;;;8.50;5.10;;;;;;;17.37;68.88;99043.48;130528;1257;107574;-76
2023/07/26 05:08:09;;;;;;;6.70;4.40;;;;;;;17.31;69.32;99047.71;130539;1256;107079;-76
2023/07/26 05:11:14;;;;;;;7.50;5.10;;;;;;;17.26;69.35;99049.95;130536;1260;107755;-78
2023/07/26 05:14:20;;;;;;;7.80;5.60;;;;;;;17.22;69.88;99054.27;130554;1260;107531;-77
2023/07/26 05:17:26;;;;;;;7.60;5.50;;;;;;;17.16;69.98;99055.92;130531;1266;107840;-76
2023/07/26 05:20:31;;;;;;;8.10;5.60;;;;;;;17.19;70.49;99062.89;130543;1262;107613;-77
2023/07/26 05:23:37;;;;;;;9.10;5.70;;;;;;;17.17;70.01;99061.38;130567;1269;107586;-76
2023/07/26 05:26:43;;;;;;;9.20;5.40;;;;;;;17.13;70.51;99063.42;130572;1262;107631;-77
2023/07/26 05:29:48;;;;;;;8.00;5.90;;;;;;;17.08;70.60;99060.24;130579;1257;107256;-76
2023/07/26 05:32:54;;;;;;;6.80;5.30;;;;;;;17.09;70.56;99056.30;130507;1257;108719;-77
2023/07/26 05:35:59;;;;;;;8.60;5.80;;;;;;;17.20;70.62;99062.30;130637;1260;107583;-77
2023/07/26 05:39:05;;;;;;;8.90;6.30;;;;;;;17.31;70.28;99071.34;130664;1261;107562;-77
2023/07/26 05:42:11;;;;;;;8.60;5.70;;;;;;;17.40;70.27;99076.92;130555;1267;107483;-77
2023/07/26 05:45:17;;;;;;;7.70;5.50;;;;;;;17.48;70.06;99078.97;130570;1263;107402;-77
2023/07/26 05:48:23;;;;;;;8.50;5.50;;;;;;;17.54;70.01;99082.50;130457;1261;107527;-77
2023/07/26 05:51:28;;;;;;;7.50;5.60;;;;;;;17.58;70.30;99089.84;130514;1262;107374;-77
2023/07/26 05:54:34;;;;;;;8.00;5.40;;;;;;;17.52;70.38;99095.39;130448;1269;107108;-77
2023/07/26 05:57:40;;;;;;;9.30;5.30;;;;;;;17.54;70.13;99095.12;130500;1271;106565;-77
2023/07/26 06:00:45;;;;;;;7.10;5.10;;;;;;;17.65;70.42;99108.79;130513;1269;107363;-77
2023/07/26 06:03:51;;;;;;;6.40;5.20;;;;;;;17.75;70.05;99109.55;130608;1259;107560;-77
2023/07/26 06:06:57;;;;;;;8.60;5.60;;;;;;;17.87;70.09;99108.06;130578;1259;107477;-77
2023/07/26 06:10:03;;;;;;;8.60;5.30;;;;;;;18.03;70.20;99109.10;130609;1269;106577;-77
2023/07/26 06:13:12;;;;;;;7.40;5.60;;;;;;;18.10;70.28;99106.95;130611;1260;107543;-76
2023/07/26 06:16:18;;;;;;;7.10;5.20;;;;;;;18.13;70.09;99104.05;130616;1258;107323;-76
2023/07/26 06:19:24;;;;;;;6.30;4.60;;;;;;;18.23;70.29;99100.91;130542;1259;106146;-77
2023/07/26 06:22:30;;;;;;;6.40;5.00;;;;;;;18.42;70.20;99099.45;130590;1258;107542;-76
2023/07/26 06:25:36;;;;;;;5.50;4.50;;;;;;;18.56;70.05;99102.54;130516;1260;107545;-78
2023/07/26 06:28:42;;;;;;;8.50;5.00;;;;;;;18.64;70.21;99101.75;130515;1268;107455;-76
2023/07/26 06:31:48;;;;;;;6.20;3.60;;;;;;;18.71;70.41;99112.77;130514;1256;108630;-77
2023/07/26 06:34:54;;;;;;;5.10;3.10;;;;;;;18.56;71.06;99120.83;130547;1254;107554;-76
2023/07/26 06:37:59;;;;;;;4.20;2.50;;;;;;;18.37;71.74;99124.38;130563;1258;107622;-77
2023/07/26 06:41:05;;;;;;;2.30;2.00;;;;;;;18.22;71.37;99132.70;130487;1265;107637;-76
2023/07/26 06:44:11;;;;;;;4.10;2.60;;;;;;;18.12;72.27;99129.73;130596;1260;107583;-76
2023/07/26 06:47:17;;;;;;;3.20;2.80;;;;;;;17.94;73.04;99116.41;130526;1259;107415;-76
2023/07/26 06:50:23;;;;;;;3.80;2.30;;;;;;;17.83;73.90;99114.33;130500;1259;109259;-76
2023/07/26 06:53:29;;;;;;;3.90;2.10;;;;;;;17.87;73.48;99108.33;130592;1260;107429;-76
2023/07/26 06:56:34;;;;;;;1.90;1.60;;;;;;;17.99;73.04;99116.50;130556;1259;107266;-76
2023/07/26 06:59:40;;;;;;;3.00;2.10;;;;;;;18.03;73.76;99130.37;130554;1260;107422;-76
2023/07/26 07:02:46;;;;;;;2.80;2.00;;;;;;;17.95;74.05;99144.66;130556;1254;107609;-76
2023/07/26 07:05:51;;;;;;;2.20;1.80;;;;;;;17.82;75.03;99154.00;130546;1254;106549;-77
2023/07/26 07:08:57;;;;;;;2.90;1.80;;;;;;;17.66;75.70;99161.67;130594;1264;107554;-77
2023/07/26 07:12:03;;;;;;;1.90;1.70;;;;;;;17.59;75.21;99161.83;130530;1268;106777;-77
2023/07/26 07:15:11;;;;;;;2.70;2.20;;;;;;;17.58;75.58;99166.56;130502;1267;107637;-76
2023/07/26 07:18:16;;;;;;;2.40;2.10;;;;;;;17.54;76.95;99169.05;130502;1261;106681;-77
2023/07/26 07:21:22;;;;;;;2.80;2.40;;;;;;;17.44;77.52;99166.98;130666;1260;106762;-76
2023/07/26 07:24:28;;;;;;;4.50;2.00;;;;;;;17.37;77.18;99168.26;130682;1260;107496;-77
2023/07/26 07:27:33;;;;;;;2.90;1.90;;;;;;;17.35;76.27;99166.90;130530;1260;107540;-77
2023/07/26 07:30:39;;;;;;;2.60;2.10;;;;;;;17.28;78.38;99171.59;130597;1268;107683;-77
2023/07/26 07:33:45;;;;;;;3.00;1.70;;;;;;;17.13;79.00;99171.58;130508;1258;108648;-77
2023/07/26 07:36:50;;;;;;;2.30;1.80;;;;;;;17.04;78.44;99173.77;130558;1260;107534;-77
2023/07/26 07:39:56;;;;;;;2.70;1.70;;;;;;;17.02;78.32;99177.73;130622;1254;108146;-77
2023/07/26 07:43:02;;;;;;;3.20;1.60;;;;;;;16.89;78.53;99182.58;130472;1258;107532;-77
2023/07/26 07:46:08;;;;;;;2.60;1.70;;;;;;;16.82;78.27;99186.61;130606;1255;107540;-77
2023/07/26 07:49:14;;;;;;;3.80;1.90;;;;;;;16.78;78.60;99182.50;130603;1260;107672;-77
2023/07/26 07:52:20;;;;;;;3.20;2.40;;;;;;;16.68;80.71;99191.33;130517;1259;107561;-77
2023/07/26 07:55:26;;;;;;;3.50;2.40;;;;;;;16.47;80.52;99192.64;130527;1259;107544;-78
2023/07/26 07:58:31;;;;;;;3.80;2.50;;;;;;;16.29;80.28;99192.21;130592;1255;107543;-77
2023/07/26 08:01:37;;;;;;;3.40;2.60;;;;;;;16.20;80.89;99197.61;130599;1260;107448;-77
2023/07/26 08:04:43;;;;;;;4.20;2.60;;;;;;;16.13;80.28;99197.81;130518;1259;107643;-78
2023/07/26 08:07:50;;;;;;;6.00;2.60;;;;;;;16.06;79.74;99196.94;130534;1269;107553;-78
2023/07/26 08:10:55;;;;;;;5.20;2.30;;;;;;;16.02;79.86;99195.39;130604;1260;107539;-77
2023/07/26 08:14:02;;;;;;;3.80;1.90;;;;;;;15.96;80.28;99201.99;130591;1260;105680;-78
2023/07/26 08:17:07;;;;;;;4.30;2.10;;;;;;;15.82;80.45;99203.38;130507;1260;107446;-77
2023/07/26 08:20:14;;;;;;;3.10;2.10;;;;;;;15.72;79.79;99208.98;130482;1260;107530;-77
2023/07/26 08:23:19;;;;;;;2.20;1.80;;;;;;;15.66;79.34;99213.53;130519;1260;107643;-76
2023/07/26 08:26:25;;;;;;;3.00;1.70;;;;;;;15.65;79.07;99214.34;130553;1260;107877;-76
2023/07/26 08:29:31;;;;;;;2.80;1.60;;;;;;;15.62;79.03;99222.39;130514;1254;107418;-76
2023/07/26 08:32:36;;;;;;;3.30;1.90;;;;;;;15.65;78.70;99228.61;130613;1267;107567;-76
2023/07/26 08:35:42;;;;;;;3.70;1.90;;;;;;;15.72;78.97;99230.38;130533;1260;107514;-76
2023/07/26 08:38:48;;;;;;;2.70;1.80;;;;;;;15.77;78.50;99224.63;130630;1254;107332;-79
2023/07/26 08:41:53;;;;;;;3.40;1.80;;;;;;;15.80;78.75;99228.71;130573;1261;107533;-78
2023/07/26 08:45:00;;;;;;;2.70;1.80;;;;;;;15.76;78.55;99228.27;130627;1254;105714;-77
2023/07/26 08:48:08;;;;;;;5.30;1.70;;;;;;;15.78;78.75;99222.89;130605;1254;107678;-77
2023/07/26 08:51:14;;;;;;;3.00;1.70;;;;;;;15.84;78.62;99227.13;130532;1259;107407;-77
2023/07/26 08:54:20;;;;;;;3.10;2.30;;;;;;;15.91;78.92;99231.75;130540;1261;106200;-78
2023/07/26 08:57:27;;;;;;;3.00;1.90;;;;;;;16.01;78.51;99230.91;130710;1256;107628;-77
2023/07/26 09:00:33;;;;;;;4.20;2.00;;;;;;;16.09;78.61;99227.23;130597;1263;106564;-78
2023/07/26 09:03:39;;;;;;;5.20;2.60;;;;;;;16.21;78.44;99226.97;130555;1260;108257;-77
2023/07/26 09:06:45;;;;;;;3.50;2.10;;;;;;;16.43;78.52;99225.63;130546;1259;107244;-78
2023/07/26 09:09:51;;;;;;;3.10;1.70;;;;;;;16.66;78.34;99229.10;130488;1260;108703;-78
2023/07/26 09:13:09;;;;;;;5.50;2.00;;;;;;;16.87;78.00;99231.91;130527;1254;107637;-77
2023/07/26 09:16:15;;;;;;;3.30;1.90;;;;;;;17.08;77.80;99237.67;130580;1259;107549;-78
2023/07/26 09:19:21;;;;;;;3.10;2.10;;;;;;;17.27;77.58;99240.65;130608;1260;109102;-77
2023/07/26 09:22:29;;;;;;;3.50;2.10;;;;;;;17.41;77.34;99235.89;130593;1254;107384;-78
2023/07/26 09:25:37;;;;;;;3.70;2.50;;;;;;;17.48;77.23;99239.33;130569;1254;107366;-77
2023/07/26 09:28:53;;;;;;;3.60;2.50;;;;;;;17.58;77.37;99242.17;130609;1261;109095;-79
2023/07/26 09:31:59;;;;;;;2.90;2.00;;;;;;;17.70;77.22;99249.15;130570;1259;107506;-79
2023/07/26 09:35:06;;;;;;;3.50;2.70;;;;;;;17.77;77.20;99254.59;130685;1254;107955;-78
2023/07/26 09:38:13;;;;;;;6.00;3.30;;;;;;;17.85;77.21;99253.02;130594;1260;107406;-77
2023/07/26 09:41:25;;;;;;;3.20;2.40;;;;;;;17.92;77.27;99257.11;130876;1254;107288;-77
2023/07/26 09:44:31;;;;;;;3.90;2.30;;;;;;;17.91;77.32;99262.77;130600;1261;106559;-77
2023/07/26 09:47:37;;;;;;;3.90;3.00;;;;;;;17.97;77.29;99263.15;130582;1260;107590;-77
2023/07/26 09:50:46;;;;;;;6.40;3.60;;;;;;;18.01;77.42;99258.78;130526;1259;107420;-77
2023/07/26 09:53:52;;;;;;;4.70;3.00;;;;;;;18.07;77.44;99254.43;130584;1258;107437;-77
2023/07/26 09:56:59;;;;;;;6.40;3.10;;;;;;;18.09;77.69;99253.38;130540;1260;107647;-77
2023/07/26 10:00:09;;;;;;;6.90;3.40;;;;;;;17.96;78.13;99260.67;130585;1254;107268;-77
2023/07/26 10:03:19;;;;;;;3.90;2.90;;;;;;;17.87;78.13;99265.02;132787;1254;107492;-77
2023/07/26 10:06:29;;;;;;;4.60;3.20;;;;;;;17.90;78.31;99267.60;130620;1259;107455;-77
2023/07/26 10:09:39;;;;;;;3.60;3.10;;;;;;;17.89;78.21;99265.54;130653;1259;108543;-77
2023/07/26 10:12:46;;;;;;;6.50;3.30;;;;;;;17.68;78.76;99264.98;130623;1259;108519;-77
2023/07/26 10:15:52;;;;;;;5.20;2.70;;;;;;;17.51;78.56;99258.30;130612;1259;107291;-79
2023/07/26 10:18:59;;;;;;;6.80;2.40;;;;;;;17.49;78.80;99265.67;130532;1259;107524;-77
2023/07/26 10:22:07;;;;;;;4.10;2.20;;;;;;;17.43;78.92;99268.14;130671;1257;107245;-77
2023/07/26 10:25:13;;;;;;;4.80;2.80;;;;;;;17.37;79.21;99272.71;130571;1259;107567;-77
2023/07/26 10:28:19;;;;;;;4.20;2.60;;;;;;;17.29;79.02;99271.55;130597;1261;107602;-78
2023/07/26 10:31:26;;;;;;;4.20;2.50;;;;;;;17.20;79.35;99271.48;130639;1259;107554;-77
2023/07/26 10:34:32;;;;;;;5.70;2.30;;;;;;;17.10;79.83;99270.45;130677;1259;107534;-77
2023/07/26 10:37:38;;;;;;;4.50;2.40;;;;;;;16.99;79.55;99269.73;130556;1260;107241;-77
2023/07/26 10:40:44;;;;;;;2.70;2.00;;;;;;;16.97;78.85;99269.65;130608;1260;107418;-80
2023/07/26 10:43:51;;;;;;;3.10;2.10;;;;;;;16.92;78.36;99269.65;130688;1254;108000;-78
2023/07/26 10:47:02;;;;;;;3.10;1.80;;;;;;;16.87;77.95;99265.02;130666;1259;106811;-77
2023/07/26 10:50:09;;;;;;;3.00;1.80;;;;;;;16.88;77.30;99269.84;130561;1270;106760;-77
2023/07/26 10:53:36;;;;;;;3.60;2.10;;;;;;;16.76;77.05;99273.08;130657;1255;107404;-77
2023/07/26 10:56:42;;;;;;;2.50;1.60;;;;;;;16.69;77.53;99273.79;130603;1260;107489;-77
2023/07/26 11:00:04;;;;;;;2.30;1.40;;;;;;;16.62;77.69;99277.05;130504;1259;107543;-77
2023/07/26 11:03:11;;;;;;;2.50;1.70;;;;;;;16.58;77.75;99281.35;130660;1254;107517;-75
2023/07/26 11:06:17;;;;;;;2.50;1.90;;;;;;;16.62;78.08;99284.56;130578;1259;108655;-76
2023/07/26 11:09:27;;;;;;;3.40;1.80;;;;;;;16.62;77.75;99286.77;130605;1259;107548;-76
2023/07/26 11:12:33;;;;;;;2.60;1.80;;;;;;;16.63;77.75;99286.09;130513;1260;107258;-76
2023/07/26 11:15:40;;;;;;;2.60;2.00;;;;;;;16.70;77.88;99289.36;130598;1261;106879;-75
2023/07/26 11:18:46;;;;;;;3.20;1.90;;;;;;;16.66;77.49;99292.41;130589;1259;107282;-76
2023/07/26 11:21:52;;;;;;;3.40;1.70;;;;;;;16.66;77.99;99299.09;130507;1259;108726;-75
2023/07/26 11:25:02;;;;;;;4.60;2.00;;;;;;;16.66;78.46;99307.04;130634;1260;107581;-76
2023/07/26 11:28:08;;;;;;;4.10;2.20;;;;;;;16.55;79.00;99308.71;130802;1259;107675;-76
2023/07/26 11:31:22;;;;;;;4.20;2.20;;;;;;;16.53;79.49;99316.23;130611;1257;107552;-75
2023/07/26 11:34:27;;;;;;;3.80;2.80;;;;;;;16.50;79.80;99320.55;130634;1259;107588;-75
2023/07/26 11:37:33;;;;;;;4.60;2.50;;;;;;;16.45;79.91;99320.14;130583;1259;107222;-76
2023/07/26 11:40:43;;;;;;;4.00;2.40;;;;;;;16.46;79.89;99322.89;130589;1261;107572;-76
2023/07/26 11:43:49;;;;;;;3.20;2.20;;;;;;;16.43;79.90;99323.69;130689;1257;107388;-77
2023/07/26 11:46:54;;;;;;;5.50;2.60;;;;;;;16.43;80.30;99325.89;130540;1254;107744;-78
2023/07/26 11:50:01;;;;;;;4.10;2.30;;;;;;;16.39;80.36;99328.81;130543;1259;107551;-79
2023/07/26 11:53:08;;;;;;;3.00;2.40;;;;;;;16.39;80.58;99333.36;130543;1259;107452;-78
2023/07/26 11:56:14;;;;;;;2.60;2.00;;;;;;;16.47;80.19;99335.94;130571;1259;108710;-76
2023/07/26 11:59:20;;;;;;;2.30;2.10;;;;;;;16.56;80.17;99333.61;130554;1258;107595;-76
2023/07/26 12:02:26;;;;;;;3.70;2.20;;;;;;;16.69;79.98;99338.97;130598;1259;107397;-76
2023/07/26 12:05:35;;;;;;;5.10;2.30;;;;;;;16.81;79.96;99335.36;130576;1259;107596;-77
2023/07/26 12:08:41;;;;;;;4.10;2.20;;;;;;;16.90;79.76;99336.98;130559;1260;107529;-77
2023/07/26 12:11:53;;;;;;;3.50;2.30;;;;;;;17.03;79.84;99339.34;130564;1259;107555;-78
2023/07/26 12:15:00;;;;;;;2.30;1.90;;;;;;;17.13;79.85;99336.71;130622;1259;107665;-77
2023/07/26 12:18:08;;;;;;;3.00;2.20;;;;;;;17.21;79.71;99342.35;130533;1259;107476;-76
2023/07/26 12:21:14;;;;;;;4.30;2.40;;;;;;;17.25;79.81;99346.36;130543;1256;108110;-76
2023/07/26 12:24:20;;;;;;;4.00;2.30;;;;;;;17.27;80.11;99349.33;130578;1259;107420;-76
2023/07/26 12:27:26;;;;;;;4.10;2.50;;;;;;;17.33;79.96;99349.00;130533;1259;107564;-77
2023/07/26 12:30:31;;;;;;;5.60;2.80;;;;;;;17.40;80.02;99353.71;130535;1258;107454;-77
2023/07/26 12:33:53;;;;;;;4.10;2.30;;;;;;;17.52;80.10;99355.48;130534;1254;107381;-77
2023/07/26 12:37:00;;;;;;;5.20;2.20;;;;;;;17.58;80.10;99361.95;130408;1256;107602;-77
2023/07/26 12:40:07;;;;;;;4.70;2.50;;;;;;;17.72;80.10;99370.46;130599;1259;107314;-76
2023/07/26 12:43:24;;;;;;;3.70;2.50;;;;;;;17.75;80.07;99371.02;130557;1259;107678;-76
2023/07/26 12:46:29;;;;;;;4.20;2.90;;;;;;;17.75;80.44;99374.42;130699;1256;107487;-77
2023/07/26 12:49:39;;;;;;;3.90;2.90;;;;;;;17.75;80.41;99369.96;130538;1259;107169;-76
2023/07/26 12:52:45;;;;;;;5.20;3.20;;;;;;;17.75;80.59;99367.48;130567;1259;107462;-78
2023/07/26 12:55:51;;;;;;;4.80;3.00;;;;;;;17.64;80.70;99372.89;130621;1254;107550;-76
2023/07/26 12:58:57;;;;;;;4.50;3.20;;;;;;;17.58;81.13;99371.39;130596;1259;107480;-76
2023/07/26 13:02:04;;;;;;;7.00;3.30;;;;;;;17.54;81.41;99368.66;130555;1261;107539;-77
2023/07/26 13:05:10;;;;;;;5.50;4.40;;;;;;;17.46;81.62;99368.09;130530;1254;107617;-76
2023/07/26 13:08:15;;;;;;;8.00;6.70;;;;;;;17.41;82.53;99367.27;130562;1259;108681;-76
2023/07/26 13:11:21;;;;;;;5.90;4.40;;;;;;;17.39;81.99;99366.29;130537;1259;107385;-75
2023/07/26 13:14:27;;;;;;;5.70;4.00;;;;;;;17.47;81.98;99368.39;130498;1259;107390;-76
2023/07/26 13:17:32;;;;;;;5.70;3.80;;;;;;;17.41;81.50;99372.09;130545;1255;107449;-76
2023/07/26 13:20:38;;;;;;;7.20;4.90;;;;;;;17.43;82.11;99374.77;130585;1254;107227;-76
2023/07/26 13:23:44;;;;;;;6.80;3.90;;;;;;;17.47;81.79;99373.29;130517;1259;107587;-75
2023/07/26 13:26:49;;;;;;;4.40;3.60;;;;;;;17.51;81.78;99377.20;130645;1259;107649;-77
2023/07/26 13:29:55;;;;;;;5.50;4.40;;;;;;;17.56;81.56;99385.13;130576;1259;107538;-77
2023/07/26 13:33:00;;;;;;;4.20;3.80;;;;;;;17.50;81.71;99385.70;130536;1259;107476;-77
2023/07/26 13:36:06;;;;;;;5.80;3.60;;;;;;;17.36;82.10;99390.99;130527;1259;108626;-78
2023/07/26 13:39:12;;;;;;;6.00;3.70;;;;;;;17.32;82.23;99390.56;130530;1259;107531;-78
2023/07/26 13:42:18;;;;;;;7.90;4.10;;;;;;;17.41;82.29;99393.65;130488;1259;107486;-77
2023/07/26 13:45:24;;;;;;;4.40;3.60;;;;;;;17.29;82.35;99394.15;130557;1258;106711;-77
2023/07/26 13:48:29;;;;;;;4.60;3.50;;;;;;;17.16;82.22;99396.60;130500;1254;107592;-76
2023/07/26 13:51:37;;;;;;;4.80;3.50;;;;;;;17.14;82.16;99398.61;130524;1259;107151;-76
2023/07/26 13:54:42;;;;;;;5.50;3.40;;;;;;;17.04;82.28;99400.73;130610;1259;107522;-76
2023/07/26 13:57:48;;;;;;;4.20;3.00;;;;;;;17.01;82.24;99398.02;130507;1261;107550;-76
2023/07/26 14:00:54;;;;;;;4.40;3.50;;;;;;;16.93;82.55;99396.98;130512;1254;106699;-76
2023/07/26 14:03:59;;;;;;;4.10;3.00;;;;;;;16.81;82.76;99408.92;130479;1259;107563;-79
2023/07/26 14:07:05;;;;;;;5.60;2.80;;;;;;;16.82;82.92;99412.91;130543;1259;107554;-76
2023/07/26 14:10:11;;;;;;;5.10;2.70;;;;;;;16.79;83.13;99409.96;130511;1259;108557;-77
2023/07/26 14:13:17;;;;;;;5.90;3.10;;;;;;;16.80;83.39;99411.46;130427;1259;107409;-78
2023/07/26 14:16:22;;;;;;;3.80;3.10;;;;;;;16.76;83.37;99417.23;130358;1259;107256;-77